sensor_id;sensor_type;location;lat;lon;timestamp;P1;durP1;ratioP1;P2;durP2;ratioP2
25249;SDS011;13201;51.148;13.738;2023-09-08T00:01:52;9.93;;;5.15;;
25249;SDS011;13201;51.148;13.738;2023-09-08T00:04:18;10.50;;;5.57;;
25249;SDS011;13201;51.148;13.738;2023-09-08T00:06:45;10.52;;;5.47;;
25249;SDS011;13201;51.148;13.738;2023-09-08T00:09:11;10.52;;;5.82;;
25249;SDS011;13201;51.148;13.738;2023-09-08T00:11:37;8.88;;;5.30;;
25249;SDS011;13201;51.148;13.738;2023-09-08T00:14:02;8.15;;;5.18;;
25249;SDS011;13201;51.148;13.738;2023-09-08T00:16:28;9.60;;;5.22;;
25249;SDS011;13201;51.148;13.738;2023-09-08T00:18:55;8.00;;;5.00;;
25249;SDS011;13201;51.148;13.738;2023-09-08T00:21:22;10.68;;;6.18;;
25249;SDS011;13201;51.148;13.738;2023-09-08T00:23:49;12.75;;;5.50;;
25249;SDS011;13201;51.148;13.738;2023-09-08T00:26:15;7.63;;;5.30;;
25249;SDS011;13201;51.148;13.738;2023-09-08T00:28:40;7.72;;;5.43;;
25249;SDS011;13201;51.148;13.738;2023-09-08T00:31:06;8.13;;;5.70;;
25249;SDS011;13201;51.148;13.738;2023-09-08T00:33:31;8.18;;;5.70;;
25249;SDS011;13201;51.148;13.738;2023-09-08T00:35:57;7.53;;;4.90;;
25249;SDS011;13201;51.148;13.738;2023-09-08T00:38:23;7.20;;;5.30;;
25249;SDS011;13201;51.148;13.738;2023-09-08T00:40:49;8.90;;;5.88;;
25249;SDS011;13201;51.148;13.738;2023-09-08T00:43:14;8.32;;;5.28;;
25249;SDS011;13201;51.148;13.738;2023-09-08T00:45:42;8.27;;;5.45;;
25249;SDS011;13201;51.148;13.738;2023-09-08T00:48:10;9.18;;;5.32;;
25249;SDS011;13201;51.148;13.738;2023-09-08T00:50:36;8.35;;;5.60;;
25249;SDS011;13201;51.148;13.738;2023-09-08T00:53:04;10.13;;;5.13;;
25249;SDS011;13201;51.148;13.738;2023-09-08T00:55:32;9.25;;;5.90;;
25249;SDS011;13201;51.148;13.738;2023-09-08T00:57:59;9.90;;;5.93;;
25249;SDS011;13201;51.148;13.738;2023-09-08T01:00:26;8.10;;;5.55;;
25249;SDS011;13201;51.148;13.738;2023-09-08T01:02:51;10.82;;;6.05;;
25249;SDS011;13201;51.148;13.738;2023-09-08T01:29:04;9.57;;;6.60;;
25249;SDS011;13201;51.148;13.738;2023-09-08T01:31:31;9.27;;;6.07;;
25249;SDS011;13201;51.148;13.738;2023-09-08T01:33:57;14.83;;;6.80;;
25249;SDS011;13201;51.148;13.738;2023-09-08T01:36:26;10.95;;;6.20;;
25249;SDS011;13201;51.148;13.738;2023-09-08T01:38:52;10.10;;;5.95;;
25249;SDS011;13201;51.148;13.738;2023-09-08T01:41:17;8.85;;;6.13;;
25249;SDS011;13201;51.148;13.738;2023-09-08T01:43:43;10.60;;;6.65;;
25249;SDS011;13201;51.148;13.738;2023-09-08T01:46:09;9.88;;;6.10;;
25249;SDS011;13201;51.148;13.738;2023-09-08T01:48:34;9.45;;;6.25;;
25249;SDS011;13201;51.148;13.738;2023-09-08T01:51:00;10.57;;;5.97;;
25249;SDS011;13201;51.148;13.738;2023-09-08T01:53:26;9.02;;;5.90;;
25249;SDS011;13201;51.148;13.738;2023-09-08T01:55:51;10.25;;;6.10;;
25249;SDS011;13201;51.148;13.738;2023-09-08T01:58:17;11.20;;;6.93;;
25249;SDS011;13201;51.148;13.738;2023-09-08T02:00:43;8.85;;;6.18;;
25249;SDS011;13201;51.148;13.738;2023-09-08T02:03:12;11.35;;;6.43;;
25249;SDS011;13201;51.148;13.738;2023-09-08T02:05:38;12.40;;;6.05;;
25249;SDS011;13201;51.148;13.738;2023-09-08T02:08:05;9.55;;;5.93;;
25249;SDS011;13201;51.148;13.738;2023-09-08T02:10:31;12.35;;;6.97;;
25249;SDS011;13201;51.148;13.738;2023-09-08T02:12:57;10.73;;;6.40;;
25249;SDS011;13201;51.148;13.738;2023-09-08T02:15:22;9.57;;;6.05;;
25249;SDS011;13201;51.148;13.738;2023-09-08T02:17:57;12.15;;;6.22;;
25249;SDS011;13201;51.148;13.738;2023-09-08T02:20:23;11.45;;;5.80;;
25249;SDS011;13201;51.148;13.738;2023-09-08T02:22:49;10.88;;;6.78;;
25249;SDS011;13201;51.148;13.738;2023-09-08T02:25:19;13.13;;;6.65;;
25249;SDS011;13201;51.148;13.738;2023-09-08T02:27:45;11.43;;;6.53;;
25249;SDS011;13201;51.148;13.738;2023-09-08T02:30:11;14.35;;;5.75;;
25249;SDS011;13201;51.148;13.738;2023-09-08T02:32:36;11.48;;;6.03;;
25249;SDS011;13201;51.148;13.738;2023-09-08T02:35:02;13.00;;;6.25;;
25249;SDS011;13201;51.148;13.738;2023-09-08T02:37:28;12.88;;;6.40;;
25249;SDS011;13201;51.148;13.738;2023-09-08T02:39:54;9.10;;;6.10;;
25249;SDS011;13201;51.148;13.738;2023-09-08T02:42:19;8.85;;;5.47;;
25249;SDS011;13201;51.148;13.738;2023-09-08T02:44:45;7.72;;;5.25;;
25249;SDS011;13201;51.148;13.738;2023-09-08T02:47:11;11.00;;;6.10;;
25249;SDS011;13201;51.148;13.738;2023-09-08T02:49:36;8.68;;;6.00;;
25249;SDS011;13201;51.148;13.738;2023-09-08T02:52:02;10.32;;;6.00;;
25249;SDS011;13201;51.148;13.738;2023-09-08T02:54:28;9.05;;;5.65;;
25249;SDS011;13201;51.148;13.738;2023-09-08T02:56:54;9.27;;;6.00;;
25249;SDS011;13201;51.148;13.738;2023-09-08T02:59:19;9.32;;;5.78;;
25249;SDS011;13201;51.148;13.738;2023-09-08T03:01:45;11.57;;;5.33;;
25249;SDS011;13201;51.148;13.738;2023-09-08T03:04:11;9.90;;;5.97;;
25249;SDS011;13201;51.148;13.738;2023-09-08T03:06:37;9.10;;;6.10;;
25249;SDS011;13201;51.148;13.738;2023-09-08T03:09:02;9.57;;;5.65;;
25249;SDS011;13201;51.148;13.738;2023-09-08T03:11:28;12.05;;;5.90;;
25249;SDS011;13201;51.148;13.738;2023-09-08T03:13:54;9.68;;;5.78;;
25249;SDS011;13201;51.148;13.738;2023-09-08T03:16:20;10.30;;;6.07;;
25249;SDS011;13201;51.148;13.738;2023-09-08T03:18:46;8.05;;;5.70;;
25249;SDS011;13201;51.148;13.738;2023-09-08T03:21:13;10.77;;;5.80;;
25249;SDS011;13201;51.148;13.738;2023-09-08T03:23:40;10.32;;;6.15;;
25249;SDS011;13201;51.148;13.738;2023-09-08T03:26:07;11.32;;;6.13;;
25249;SDS011;13201;51.148;13.738;2023-09-08T03:28:34;12.18;;;6.20;;
25249;SDS011;13201;51.148;13.738;2023-09-08T03:31:01;8.77;;;5.70;;
25249;SDS011;13201;51.148;13.738;2023-09-08T03:33:27;9.85;;;5.72;;
25249;SDS011;13201;51.148;13.738;2023-09-08T03:35:53;8.95;;;5.53;;
25249;SDS011;13201;51.148;13.738;2023-09-08T03:38:20;9.18;;;6.25;;
25249;SDS011;13201;51.148;13.738;2023-09-08T03:40:46;10.77;;;6.57;;
25249;SDS011;13201;51.148;13.738;2023-09-08T03:43:12;8.52;;;5.93;;
25249;SDS011;13201;51.148;13.738;2023-09-08T03:45:37;9.55;;;5.78;;
25249;SDS011;13201;51.148;13.738;2023-09-08T03:48:03;8.38;;;5.85;;
25249;SDS011;13201;51.148;13.738;2023-09-08T03:50:29;9.20;;;6.13;;
25249;SDS011;13201;51.148;13.738;2023-09-08T03:52:55;9.30;;;6.00;;
25249;SDS011;13201;51.148;13.738;2023-09-08T03:55:21;8.40;;;5.97;;
25249;SDS011;13201;51.148;13.738;2023-09-08T03:57:46;11.55;;;6.07;;
25249;SDS011;13201;51.148;13.738;2023-09-08T04:00:13;12.10;;;6.10;;
25249;SDS011;13201;51.148;13.738;2023-09-08T04:02:44;8.48;;;5.90;;
25249;SDS011;13201;51.148;13.738;2023-09-08T04:05:10;13.05;;;6.00;;
25249;SDS011;13201;51.148;13.738;2023-09-08T04:07:36;9.98;;;5.75;;
25249;SDS011;13201;51.148;13.738;2023-09-08T04:10:02;9.10;;;5.80;;
25249;SDS011;13201;51.148;13.738;2023-09-08T04:12:28;10.30;;;5.97;;
25249;SDS011;13201;51.148;13.738;2023-09-08T04:14:54;9.93;;;5.63;;
25249;SDS011;13201;51.148;13.738;2023-09-08T04:17:19;10.95;;;5.63;;
25249;SDS011;13201;51.148;13.738;2023-09-08T04:19:45;12.88;;;7.32;;
25249;SDS011;13201;51.148;13.738;2023-09-08T04:22:11;9.20;;;5.95;;
25249;SDS011;13201;51.148;13.738;2023-09-08T04:24:37;9.80;;;5.75;;
25249;SDS011;13201;51.148;13.738;2023-09-08T04:27:03;8.38;;;5.97;;
25249;SDS011;13201;51.148;13.738;2023-09-08T04:29:29;11.73;;;6.07;;
25249;SDS011;13201;51.148;13.738;2023-09-08T04:31:55;10.52;;;6.45;;
25249;SDS011;13201;51.148;13.738;2023-09-08T04:34:20;10.95;;;5.97;;
25249;SDS011;13201;51.148;13.738;2023-09-08T04:36:46;9.27;;;5.90;;
25249;SDS011;13201;51.148;13.738;2023-09-08T04:39:12;13.00;;;6.25;;
25249;SDS011;13201;51.148;13.738;2023-09-08T04:41:40;9.00;;;6.00;;
25249;SDS011;13201;51.148;13.738;2023-09-08T04:44:05;12.05;;;5.97;;
25249;SDS011;13201;51.148;13.738;2023-09-08T04:46:31;9.95;;;5.38;;
25249;SDS011;13201;51.148;13.738;2023-09-08T04:48:57;11.73;;;5.93;;
25249;SDS011;13201;51.148;13.738;2023-09-08T04:51:23;11.35;;;5.78;;
25249;SDS011;13201;51.148;13.738;2023-09-08T04:53:48;10.38;;;5.53;;
25249;SDS011;13201;51.148;13.738;2023-09-08T04:56:14;13.05;;;5.70;;
25249;SDS011;13201;51.148;13.738;2023-09-08T04:58:40;9.52;;;5.68;;
25249;SDS011;13201;51.148;13.738;2023-09-08T05:01:05;9.23;;;5.70;;
25249;SDS011;13201;51.148;13.738;2023-09-08T05:03:31;10.63;;;5.97;;
25249;SDS011;13201;51.148;13.738;2023-09-08T05:05:57;10.02;;;5.95;;
25249;SDS011;13201;51.148;13.738;2023-09-08T05:08:22;12.60;;;6.10;;
25249;SDS011;13201;51.148;13.738;2023-09-08T05:10:48;10.63;;;6.20;;
25249;SDS011;13201;51.148;13.738;2023-09-08T05:13:16;11.43;;;6.30;;
25249;SDS011;13201;51.148;13.738;2023-09-08T05:15:42;12.38;;;5.90;;
25249;SDS011;13201;51.148;13.738;2023-09-08T05:18:09;19.13;;;6.60;;
25249;SDS011;13201;51.148;13.738;2023-09-08T05:20:34;10.55;;;6.10;;
25249;SDS011;13201;51.148;13.738;2023-09-08T05:23:00;11.45;;;6.18;;
25249;SDS011;13201;51.148;13.738;2023-09-08T05:25:26;11.05;;;6.50;;
25249;SDS011;13201;51.148;13.738;2023-09-08T05:27:51;8.80;;;5.70;;
25249;SDS011;13201;51.148;13.738;2023-09-08T05:30:17;14.15;;;5.95;;
25249;SDS011;13201;51.148;13.738;2023-09-08T05:32:43;15.25;;;6.45;;
25249;SDS011;13201;51.148;13.738;2023-09-08T05:35:08;11.50;;;6.22;;
25249;SDS011;13201;51.148;13.738;2023-09-08T05:37:35;10.90;;;5.90;;
25249;SDS011;13201;51.148;13.738;2023-09-08T05:40:00;15.38;;;7.88;;
25249;SDS011;13201;51.148;13.738;2023-09-08T05:42:26;13.27;;;6.95;;
25249;SDS011;13201;51.148;13.738;2023-09-08T05:44:51;11.48;;;6.70;;
25249;SDS011;13201;51.148;13.738;2023-09-08T05:47:19;10.85;;;6.20;;
25249;SDS011;13201;51.148;13.738;2023-09-08T05:49:45;11.93;;;6.75;;
25249;SDS011;13201;51.148;13.738;2023-09-08T05:52:11;13.23;;;7.88;;
25249;SDS011;13201;51.148;13.738;2023-09-08T05:54:36;25.15;;;12.05;;
25249;SDS011;13201;51.148;13.738;2023-09-08T05:57:02;21.92;;;13.77;;
25249;SDS011;13201;51.148;13.738;2023-09-08T05:59:28;27.98;;;17.42;;
25249;SDS011;13201;51.148;13.738;2023-09-08T06:01:53;23.63;;;10.57;;
25249;SDS011;13201;51.148;13.738;2023-09-08T06:04:19;12.85;;;7.38;;
25249;SDS011;13201;51.148;13.738;2023-09-08T06:06:45;11.95;;;6.93;;
25249;SDS011;13201;51.148;13.738;2023-09-08T06:09:10;11.05;;;7.32;;
25249;SDS011;13201;51.148;13.738;2023-09-08T06:11:37;8.60;;;6.03;;
25249;SDS011;13201;51.148;13.738;2023-09-08T06:14:02;11.40;;;5.90;;
25249;SDS011;13201;51.148;13.738;2023-09-08T06:16:28;11.90;;;5.97;;
25249;SDS011;13201;51.148;13.738;2023-09-08T06:18:54;10.50;;;6.30;;
25249;SDS011;13201;51.148;13.738;2023-09-08T06:21:19;13.23;;;6.05;;
25249;SDS011;13201;51.148;13.738;2023-09-08T06:23:45;10.75;;;5.88;;
25249;SDS011;13201;51.148;13.738;2023-09-08T06:26:11;8.65;;;5.70;;
25249;SDS011;13201;51.148;13.738;2023-09-08T06:28:37;9.00;;;5.63;;
25249;SDS011;13201;51.148;13.738;2023-09-08T06:33:30;8.43;;;5.30;;
25249;SDS011;13201;51.148;13.738;2023-09-08T06:35:55;10.88;;;5.65;;
25249;SDS011;13201;51.148;13.738;2023-09-08T06:38:21;10.27;;;5.47;;
25249;SDS011;13201;51.148;13.738;2023-09-08T06:40:47;9.60;;;5.60;;
25249;SDS011;13201;51.148;13.738;2023-09-08T06:43:13;15.25;;;6.80;;
25249;SDS011;13201;51.148;13.738;2023-09-08T06:45:38;9.35;;;5.60;;
25249;SDS011;13201;51.148;13.738;2023-09-08T06:48:07;10.88;;;5.63;;
25249;SDS011;13201;51.148;13.738;2023-09-08T06:50:33;7.07;;;5.30;;
25249;SDS011;13201;51.148;13.738;2023-09-08T06:53:00;8.52;;;5.53;;
25249;SDS011;13201;51.148;13.738;2023-09-08T06:55:25;10.93;;;5.88;;
25249;SDS011;13201;51.148;13.738;2023-09-08T06:57:51;9.00;;;5.93;;
25249;SDS011;13201;51.148;13.738;2023-09-08T07:00:17;9.90;;;5.72;;
25249;SDS011;13201;51.148;13.738;2023-09-08T07:02:42;8.68;;;5.60;;
25249;SDS011;13201;51.148;13.738;2023-09-08T07:05:08;10.05;;;5.53;;
25249;SDS011;13201;51.148;13.738;2023-09-08T07:07:34;11.13;;;6.63;;
25249;SDS011;13201;51.148;13.738;2023-09-08T07:10:01;11.65;;;6.15;;
25249;SDS011;13201;51.148;13.738;2023-09-08T07:12:28;7.63;;;5.45;;
25249;SDS011;13201;51.148;13.738;2023-09-08T07:14:53;12.30;;;5.55;;
25249;SDS011;13201;51.148;13.738;2023-09-08T07:17:19;7.57;;;5.55;;
25249;SDS011;13201;51.148;13.738;2023-09-08T07:19:45;9.25;;;5.57;;
25249;SDS011;13201;51.148;13.738;2023-09-08T07:22:10;12.38;;;5.53;;
25249;SDS011;13201;51.148;13.738;2023-09-08T07:24:36;12.40;;;5.50;;
25249;SDS011;13201;51.148;13.738;2023-09-08T07:27:02;10.50;;;5.65;;
25249;SDS011;13201;51.148;13.738;2023-09-08T07:29:28;9.40;;;5.47;;
25249;SDS011;13201;51.148;13.738;2023-09-08T07:31:53;9.50;;;5.50;;
25249;SDS011;13201;51.148;13.738;2023-09-08T07:34:19;8.98;;;5.20;;
25249;SDS011;13201;51.148;13.738;2023-09-08T07:36:45;8.82;;;5.93;;
25249;SDS011;13201;51.148;13.738;2023-09-08T07:39:10;10.32;;;5.85;;
25249;SDS011;13201;51.148;13.738;2023-09-08T07:41:36;7.40;;;4.90;;
25249;SDS011;13201;51.148;13.738;2023-09-08T07:44:04;7.32;;;5.05;;
25249;SDS011;13201;51.148;13.738;2023-09-08T07:46:30;6.43;;;4.67;;
25249;SDS011;13201;51.148;13.738;2023-09-08T07:48:57;8.55;;;5.07;;
25249;SDS011;13201;51.148;13.738;2023-09-08T07:51:23;10.23;;;5.22;;
25249;SDS011;13201;51.148;13.738;2023-09-08T07:53:49;10.57;;;4.63;;
25249;SDS011;13201;51.148;13.738;2023-09-08T07:56:15;8.88;;;5.07;;
25249;SDS011;13201;51.148;13.738;2023-09-08T07:58:40;9.77;;;5.07;;
25249;SDS011;13201;51.148;13.738;2023-09-08T08:01:06;7.97;;;4.85;;
25249;SDS011;13201;51.148;13.738;2023-09-08T08:03:32;6.68;;;4.70;;
25249;SDS011;13201;51.148;13.738;2023-09-08T08:06:00;8.38;;;5.00;;
25249;SDS011;13201;51.148;13.738;2023-09-08T08:08:26;9.93;;;4.57;;
25249;SDS011;13201;51.148;13.738;2023-09-08T08:10:52;8.50;;;4.95;;
25249;SDS011;13201;51.148;13.738;2023-09-08T08:13:17;8.32;;;5.10;;
25249;SDS011;13201;51.148;13.738;2023-09-08T08:15:44;10.80;;;4.95;;
25249;SDS011;13201;51.148;13.738;2023-09-08T08:18:12;5.88;;;4.70;;
25249;SDS011;13201;51.148;13.738;2023-09-08T08:20:38;8.25;;;4.95;;
25249;SDS011;13201;51.148;13.738;2023-09-08T08:23:04;7.00;;;4.80;;
25249;SDS011;13201;51.148;13.738;2023-09-08T08:25:31;7.13;;;5.00;;
25249;SDS011;13201;51.148;13.738;2023-09-08T08:27:57;9.45;;;5.07;;
25249;SDS011;13201;51.148;13.738;2023-09-08T08:30:25;9.70;;;4.70;;
25249;SDS011;13201;51.148;13.738;2023-09-08T08:32:52;7.47;;;4.20;;
25249;SDS011;13201;51.148;13.738;2023-09-08T08:35:20;8.25;;;5.10;;
25249;SDS011;13201;51.148;13.738;2023-09-08T08:37:46;8.88;;;4.65;;
25249;SDS011;13201;51.148;13.738;2023-09-08T08:40:12;10.02;;;4.68;;
25249;SDS011;13201;51.148;13.738;2023-09-08T08:42:38;6.60;;;4.57;;
25249;SDS011;13201;51.148;13.738;2023-09-08T08:45:04;7.50;;;4.78;;
25249;SDS011;13201;51.148;13.738;2023-09-08T08:47:31;7.38;;;3.88;;
25249;SDS011;13201;51.148;13.738;2023-09-08T08:49:57;7.67;;;4.50;;
25249;SDS011;13201;51.148;13.738;2023-09-08T08:52:25;7.53;;;4.88;;
25249;SDS011;13201;51.148;13.738;2023-09-08T08:54:51;7.53;;;4.82;;
25249;SDS011;13201;51.148;13.738;2023-09-08T08:57:17;6.80;;;4.53;;
25249;SDS011;13201;51.148;13.738;2023-09-08T08:59:43;9.00;;;4.50;;
25249;SDS011;13201;51.148;13.738;2023-09-08T09:02:11;8.95;;;4.15;;
25249;SDS011;13201;51.148;13.738;2023-09-08T09:04:37;8.27;;;4.60;;
25249;SDS011;13201;51.148;13.738;2023-09-08T09:07:03;6.60;;;4.23;;
25249;SDS011;13201;51.148;13.738;2023-09-08T09:09:31;6.15;;;4.55;;
25249;SDS011;13201;51.148;13.738;2023-09-08T09:11:57;7.50;;;5.00;;
25249;SDS011;13201;51.148;13.738;2023-09-08T09:14:22;6.68;;;4.45;;
25249;SDS011;13201;51.148;13.738;2023-09-08T09:16:48;7.75;;;4.00;;
25249;SDS011;13201;51.148;13.738;2023-09-08T09:19:18;9.23;;;4.53;;
25249;SDS011;13201;51.148;13.738;2023-09-08T09:21:56;9.15;;;4.45;;
25249;SDS011;13201;51.148;13.738;2023-09-08T09:24:33;8.73;;;4.40;;
25249;SDS011;13201;51.148;13.738;2023-09-08T09:27:04;7.65;;;4.57;;
25249;SDS011;13201;51.148;13.738;2023-09-08T09:29:34;7.70;;;4.03;;
25249;SDS011;13201;51.148;13.738;2023-09-08T09:32:11;5.13;;;4.10;;
25249;SDS011;13201;51.148;13.738;2023-09-08T09:34:36;7.38;;;4.15;;
25249;SDS011;13201;51.148;13.738;2023-09-08T09:37:18;7.28;;;4.53;;
25249;SDS011;13201;51.148;13.738;2023-09-08T09:39:48;11.77;;;4.23;;
25249;SDS011;13201;51.148;13.738;2023-09-08T09:42:17;8.73;;;4.55;;
25249;SDS011;13201;51.148;13.738;2023-09-08T09:47:12;6.22;;;4.10;;
25249;SDS011;13201;51.148;13.738;2023-09-08T09:49:45;5.68;;;4.05;;
25249;SDS011;13201;51.148;13.738;2023-09-08T09:52:13;7.95;;;4.40;;
25249;SDS011;13201;51.148;13.738;2023-09-08T09:54:45;6.82;;;4.13;;
25249;SDS011;13201;51.148;13.738;2023-09-08T09:57:14;11.93;;;4.15;;
25249;SDS011;13201;51.148;13.738;2023-09-08T09:59:42;5.90;;;3.90;;
25249;SDS011;13201;51.148;13.738;2023-09-08T10:02:11;8.77;;;4.15;;
25249;SDS011;13201;51.148;13.738;2023-09-08T10:04:42;6.60;;;4.13;;
25249;SDS011;13201;51.148;13.738;2023-09-08T10:07:10;7.50;;;4.38;;
25249;SDS011;13201;51.148;13.738;2023-09-08T10:09:36;6.50;;;3.90;;
25249;SDS011;13201;51.148;13.738;2023-09-08T10:12:05;8.77;;;4.13;;
25249;SDS011;13201;51.148;13.738;2023-09-08T10:14:35;7.30;;;3.75;;
25249;SDS011;13201;51.148;13.738;2023-09-08T10:17:01;6.68;;;4.70;;
25249;SDS011;13201;51.148;13.738;2023-09-08T10:19:27;7.40;;;4.10;;
25249;SDS011;13201;51.148;13.738;2023-09-08T10:21:59;8.35;;;4.10;;
25249;SDS011;13201;51.148;13.738;2023-09-08T10:24:26;5.80;;;3.80;;
25249;SDS011;13201;51.148;13.738;2023-09-08T10:26:58;7.55;;;4.72;;
25249;SDS011;13201;51.148;13.738;2023-09-08T10:29:34;6.43;;;4.07;;
25249;SDS011;13201;51.148;13.738;2023-09-08T10:32:00;10.93;;;4.57;;
25249;SDS011;13201;51.148;13.738;2023-09-08T10:34:27;7.43;;;4.32;;
25249;SDS011;13201;51.148;13.738;2023-09-08T10:36:55;6.55;;;3.63;;
25249;SDS011;13201;51.148;13.738;2023-09-08T10:39:27;7.60;;;3.90;;
25249;SDS011;13201;51.148;13.738;2023-09-08T10:47:19;5.95;;;4.18;;
25249;SDS011;13201;51.148;13.738;2023-09-08T10:49:45;6.30;;;4.07;;
25249;SDS011;13201;51.148;13.738;2023-09-08T10:52:11;8.10;;;3.93;;
25249;SDS011;13201;51.148;13.738;2023-09-08T10:57:14;6.97;;;3.92;;
25249;SDS011;13201;51.148;13.738;2023-09-08T10:59:54;6.45;;;3.78;;
25249;SDS011;13201;51.148;13.738;2023-09-08T11:05:06;5.55;;;3.65;;
25249;SDS011;13201;51.148;13.738;2023-09-08T11:07:35;7.28;;;4.38;;
25249;SDS011;13201;51.148;13.738;2023-09-08T11:10:05;4.57;;;3.80;;
25249;SDS011;13201;51.148;13.738;2023-09-08T11:12:31;5.32;;;3.88;;
25249;SDS011;13201;51.148;13.738;2023-09-08T11:14:58;9.75;;;4.05;;
25249;SDS011;13201;51.148;13.738;2023-09-08T11:17:29;6.32;;;3.95;;
25249;SDS011;13201;51.148;13.738;2023-09-08T11:19:55;7.10;;;4.53;;
25249;SDS011;13201;51.148;13.738;2023-09-08T11:22:22;10.10;;;4.43;;
25249;SDS011;13201;51.148;13.738;2023-09-08T11:24:52;9.63;;;4.32;;
25249;SDS011;13201;51.148;13.738;2023-09-08T11:27:22;9.18;;;3.90;;
25249;SDS011;13201;51.148;13.738;2023-09-08T11:32:14;7.30;;;4.10;;
25249;SDS011;13201;51.148;13.738;2023-09-08T11:34:40;5.63;;;3.60;;
25249;SDS011;13201;51.148;13.738;2023-09-08T11:37:10;6.22;;;3.90;;
25249;SDS011;13201;51.148;13.738;2023-09-08T11:39:41;7.43;;;3.65;;
25249;SDS011;13201;51.148;13.738;2023-09-08T11:42:08;7.38;;;4.10;;
25249;SDS011;13201;51.148;13.738;2023-09-08T11:44:36;5.53;;;3.90;;
25249;SDS011;13201;51.148;13.738;2023-09-08T11:47:02;8.23;;;4.03;;
25249;SDS011;13201;51.148;13.738;2023-09-08T11:49:42;7.93;;;4.03;;
25249;SDS011;13201;51.148;13.738;2023-09-08T11:52:09;5.68;;;3.80;;
25249;SDS011;13201;51.148;13.738;2023-09-08T11:54:36;8.10;;;3.87;;
25249;SDS011;13201;51.148;13.738;2023-09-08T11:57:03;6.22;;;4.10;;
25249;SDS011;13201;51.148;13.738;2023-09-08T11:59:33;7.88;;;3.75;;
25249;SDS011;13201;51.148;13.738;2023-09-08T12:01:59;6.07;;;3.65;;
25249;SDS011;13201;51.148;13.738;2023-09-08T12:04:25;6.10;;;4.03;;
25249;SDS011;13201;51.148;13.738;2023-09-08T12:06:53;7.38;;;4.03;;
25249;SDS011;13201;51.148;13.738;2023-09-08T12:09:21;5.30;;;3.88;;
25249;SDS011;13201;51.148;13.738;2023-09-08T12:11:47;6.28;;;3.90;;
25249;SDS011;13201;51.148;13.738;2023-09-08T12:14:13;5.53;;;3.77;;
25249;SDS011;13201;51.148;13.738;2023-09-08T12:16:43;5.95;;;3.92;;
25249;SDS011;13201;51.148;13.738;2023-09-08T12:19:27;7.45;;;4.05;;
25249;SDS011;13201;51.148;13.738;2023-09-08T12:21:59;6.93;;;4.15;;
25249;SDS011;13201;51.148;13.738;2023-09-08T12:27:22;5.85;;;4.13;;
25249;SDS011;13201;51.148;13.738;2023-09-08T12:32:17;6.18;;;3.92;;
25249;SDS011;13201;51.148;13.738;2023-09-08T12:34:43;9.27;;;4.20;;
25249;SDS011;13201;51.148;13.738;2023-09-08T12:37:10;5.07;;;3.67;;
25249;SDS011;13201;51.148;13.738;2023-09-08T12:39:37;5.53;;;3.83;;
25249;SDS011;13201;51.148;13.738;2023-09-08T12:42:04;8.40;;;4.18;;
25249;SDS011;13201;51.148;13.738;2023-09-08T12:44:30;4.88;;;4.03;;
25249;SDS011;13201;51.148;13.738;2023-09-08T12:46:55;8.60;;;3.80;;
25249;SDS011;13201;51.148;13.738;2023-09-08T12:49:21;8.77;;;4.50;;
25249;SDS011;13201;51.148;13.738;2023-09-08T12:51:47;5.87;;;3.80;;
25249;SDS011;13201;51.148;13.738;2023-09-08T12:54:12;5.93;;;4.00;;
25249;SDS011;13201;51.148;13.738;2023-09-08T12:56:38;5.47;;;4.10;;
25249;SDS011;13201;51.148;13.738;2023-09-08T12:59:04;8.47;;;3.70;;
25249;SDS011;13201;51.148;13.738;2023-09-08T13:01:29;10.40;;;4.23;;
25249;SDS011;13201;51.148;13.738;2023-09-08T13:03:55;4.83;;;3.63;;
25249;SDS011;13201;51.148;13.738;2023-09-08T13:06:21;6.47;;;3.60;;
25249;SDS011;13201;51.148;13.738;2023-09-08T13:08:46;4.93;;;3.73;;
25249;SDS011;13201;51.148;13.738;2023-09-08T13:11:12;11.03;;;3.97;;
25249;SDS011;13201;51.148;13.738;2023-09-08T13:13:38;5.57;;;3.77;;
25249;SDS011;13201;51.148;13.738;2023-09-08T13:16:03;7.97;;;3.83;;
25249;SDS011;13201;51.148;13.738;2023-09-08T13:18:29;5.03;;;3.53;;
25249;SDS011;13201;51.148;13.738;2023-09-08T13:21:00;5.57;;;4.00;;
25249;SDS011;13201;51.148;13.738;2023-09-08T13:23:26;7.07;;;3.72;;
25249;SDS011;13201;51.148;13.738;2023-09-08T13:25:52;5.43;;;3.57;;
25249;SDS011;13201;51.148;13.738;2023-09-08T13:28:18;5.30;;;3.70;;
25249;SDS011;13201;51.148;13.738;2023-09-08T13:30:43;5.47;;;3.90;;
25249;SDS011;13201;51.148;13.738;2023-09-08T13:33:09;5.77;;;3.97;;
25249;SDS011;13201;51.148;13.738;2023-09-08T13:35:35;4.10;;;3.60;;
25249;SDS011;13201;51.148;13.738;2023-09-08T13:38:00;5.83;;;3.50;;
25249;SDS011;13201;51.148;13.738;2023-09-08T13:40:28;4.38;;;3.30;;
25249;SDS011;13201;51.148;13.738;2023-09-08T13:42:53;5.23;;;3.60;;
25249;SDS011;13201;51.148;13.738;2023-09-08T13:45:19;5.60;;;3.67;;
25249;SDS011;13201;51.148;13.738;2023-09-08T13:47:45;5.23;;;3.60;;
25249;SDS011;13201;51.148;13.738;2023-09-08T13:50:10;5.90;;;3.80;;
25249;SDS011;13201;51.148;13.738;2023-09-08T13:52:36;4.83;;;4.00;;
25249;SDS011;13201;51.148;13.738;2023-09-08T13:55:05;7.88;;;4.03;;
25249;SDS011;13201;51.148;13.738;2023-09-08T13:57:31;6.30;;;4.28;;
25249;SDS011;13201;51.148;13.738;2023-09-08T13:59:56;11.37;;;5.57;;
25249;SDS011;13201;51.148;13.738;2023-09-08T14:02:22;6.30;;;4.40;;
25249;SDS011;13201;51.148;13.738;2023-09-08T14:04:48;6.95;;;3.95;;
25249;SDS011;13201;51.148;13.738;2023-09-08T14:07:14;6.30;;;3.77;;
25249;SDS011;13201;51.148;13.738;2023-09-08T14:09:39;6.53;;;3.90;;
25249;SDS011;13201;51.148;13.738;2023-09-08T14:12:05;5.37;;;3.80;;
25249;SDS011;13201;51.148;13.738;2023-09-08T14:14:31;5.93;;;3.65;;
25249;SDS011;13201;51.148;13.738;2023-09-08T14:16:57;8.90;;;3.90;;
25249;SDS011;13201;51.148;13.738;2023-09-08T14:19:22;6.00;;;3.73;;
25249;SDS011;13201;51.148;13.738;2023-09-08T14:21:48;5.43;;;3.43;;
25249;SDS011;13201;51.148;13.738;2023-09-08T14:24:14;5.13;;;3.63;;
25249;SDS011;13201;51.148;13.738;2023-09-08T14:26:39;4.33;;;3.50;;
25249;SDS011;13201;51.148;13.738;2023-09-08T14:29:05;5.43;;;3.77;;
25249;SDS011;13201;51.148;13.738;2023-09-08T14:31:31;4.43;;;3.63;;
25249;SDS011;13201;51.148;13.738;2023-09-08T14:33:57;5.75;;;3.53;;
25249;SDS011;13201;51.148;13.738;2023-09-08T14:36:22;7.15;;;3.83;;
25249;SDS011;13201;51.148;13.738;2023-09-08T14:38:49;9.65;;;4.18;;
25249;SDS011;13201;51.148;13.738;2023-09-08T14:41:15;8.77;;;4.47;;
25249;SDS011;13201;51.148;13.738;2023-09-08T14:43:41;6.35;;;4.38;;
25249;SDS011;13201;51.148;13.738;2023-09-08T14:46:06;7.00;;;4.00;;
25249;SDS011;13201;51.148;13.738;2023-09-08T14:48:32;5.73;;;3.70;;
25249;SDS011;13201;51.148;13.738;2023-09-08T14:50:58;8.02;;;3.92;;
25249;SDS011;13201;51.148;13.738;2023-09-08T14:55:50;5.03;;;4.20;;
25249;SDS011;13201;51.148;13.738;2023-09-08T14:58:16;5.93;;;3.80;;
25249;SDS011;13201;51.148;13.738;2023-09-08T15:00:42;6.90;;;4.20;;
25249;SDS011;13201;51.148;13.738;2023-09-08T15:03:09;5.50;;;3.92;;
25249;SDS011;13201;51.148;13.738;2023-09-08T15:05:35;10.00;;;3.75;;
25249;SDS011;13201;51.148;13.738;2023-09-08T15:08:01;6.28;;;3.90;;
25249;SDS011;13201;51.148;13.738;2023-09-08T15:10:27;7.72;;;3.78;;
25249;SDS011;13201;51.148;13.738;2023-09-08T15:12:53;10.32;;;4.18;;
25249;SDS011;13201;51.148;13.738;2023-09-08T15:15:18;6.88;;;3.88;;
25249;SDS011;13201;51.148;13.738;2023-09-08T15:17:54;7.80;;;3.83;;